Latest Weather Observations for Emerald

IDQ60801

Issued at 12:05 am EST Tuesday 23 September 2014 (issued every 30 minutes, with the page automatically refreshed every 10 minutes)

About weather observations | Map of weather stations | Latest weather observations for QLD | Other Formats
Station Details ID: 035264 Name: EMERALD AIRPORT Lat: -23.57 Lon: 148.18 Height: 189.4 m
Data from the previous 72 hours. | See also: Recent months at Emerald
Date/Time
EST
Temp
°C
App
Temp
°C
Dew
Point
Rel
Hum
%
Delta-T
°C
Wind Press
QNH
hPa
Press
MSL
hPa
Rain
since 9 am
mm
Dir
 
Spd
km/h
Gust
km/h
Spd
kts
Gust
kts
23/12:00am 14.1 12.4 13.6 97 0.3 SE 15 19 8 10 1023.3 1022.8 20.4
 
Date/Time
EST
Temp
°C
App
Temp
°C
Dew
Point
Rel
Hum
%
Delta-T
°C
Wind Press
QNH
hPa
Press
MSL
hPa
Rain
since 9 am
mm
Dir
 
Spd
km/h
Gust
km/h
Spd
kts
Gust
kts
22/11:30pm 14.3 11.9 13.8 97 0.3 SE 19 24 10 13 1023.3 - 20.4
22/11:00pm 14.4 12.0 13.9 97 0.3 SSE 19 28 10 15 1023.9 - 20.4
22/10:33pm 14.3 12.3 13.8 97 0.3 SSE 17 20 9 11 1024.1 - 20.4
22/10:30pm 14.3 12.3 13.8 97 0.3 SSE 17 20 9 11 1024.1 - 20.4
22/10:17pm 14.2 12.1 13.7 97 0.3 SSE 17 22 9 12 1024.2 - 20.2
22/10:00pm 14.2 11.6 13.7 97 0.3 SE 20 26 11 14 1024.2 - 20.2
22/09:55pm 14.2 11.2 13.7 97 0.3 SSE 22 28 12 15 1024.0 - 20.2
22/09:30pm 14.3 10.6 13.8 97 0.3 SE 26 35 14 19 1024.2 - 20.0
22/09:23pm 14.5 10.8 14.0 97 0.3 SE 26 35 14 19 1024.2 - 19.4
22/09:00pm 14.8 11.5 14.0 95 0.5 ESE 24 37 13 20 1024.1 1023.6 19.4
22/08:56pm 14.9 12.0 14.1 95 0.5 ESE 22 37 12 20 1024.1 - 19.4
22/08:30pm 14.4 12.0 13.9 97 0.3 SE 19 24 10 13 1023.9 - 19.4
22/08:00pm 14.3 11.3 13.8 97 0.3 SE 22 33 12 18 1023.3 - 19.4
22/07:30pm 14.3 10.6 13.8 97 0.3 SE 26 35 14 19 1023.0 - 19.2
22/07:00pm 14.2 9.7 13.7 97 0.3 SE 30 44 16 24 1022.6 - 19.2
22/06:45pm 14.4 9.9 13.9 97 0.3 SE 30 41 16 22 1022.3 - 19.2
22/06:32pm 14.5 10.5 14.0 97 0.3 SE 28 39 15 21 1022.2 - 19.2
22/06:30pm 14.4 10.3 13.9 97 0.3 SE 28 37 15 20 1022.2 - 19.2
22/06:00pm 14.5 10.8 14.0 97 0.3 SE 26 39 14 21 1021.9 1021.4 19.2
22/05:54pm 14.5 9.7 14.0 97 0.3 SE 32 44 17 24 1021.6 - 19.2
22/05:30pm 14.4 8.2 13.9 97 0.3 SE 39 52 21 28 1021.1 - 19.2
22/05:14pm 14.4 8.6 13.9 97 0.3 SE 37 56 20 30 1021.1 - 19.0
22/05:00pm 14.4 9.0 13.9 97 0.3 SE 35 48 19 26 1021.4 - 18.6
22/04:38pm 14.5 9.5 14.0 97 0.3 SE 33 43 18 23 1021.5 - 18.0
22/04:30pm 14.5 9.5 14.0 97 0.3 SE 33 43 18 23 1021.4 - 17.6
22/04:22pm 14.6 9.8 14.1 97 0.3 SE 32 41 17 22 1021.5 - 17.2
22/04:00pm 14.7 10.3 14.2 97 0.3 SE 30 39 16 21 1021.5 - 16.0
22/03:30pm 14.9 11.4 14.4 97 0.3 SE 26 32 14 17 1021.5 - 15.2
22/03:09pm 15.1 11.3 14.6 97 0.3 SSE 28 35 15 19 1021.4 - 14.8
22/03:00pm 15.0 11.5 14.5 97 0.3 SSE 26 35 14 19 1021.5 1021.0 14.8
22/02:30pm 15.1 12.4 14.6 97 0.3 SE 22 32 12 17 1021.9 - 12.2
22/02:27pm 15.1 12.4 14.6 97 0.3 SE 22 30 12 16 1021.9 - 12.0
22/02:20pm 15.2 12.5 14.7 97 0.3 SE 22 32 12 17 1021.9 - 11.6
22/02:00pm 15.0 11.5 14.5 97 0.3 SE 26 37 14 20 1021.8 - 11.2
22/01:35pm 15.2 11.4 14.7 97 0.3 SSE 28 39 15 21 1021.8 - 10.0
22/01:30pm 15.2 11.4 14.7 97 0.3 SSE 28 35 15 19 1021.9 - 9.8
22/01:22pm 15.1 10.9 14.6 97 0.3 SSE 30 39 16 21 1021.9 - 9.8
22/01:00pm 15.0 10.7 14.5 97 0.3 SSE 30 39 16 21 1022.2 - 9.2
22/12:30pm 15.2 10.6 14.7 97 0.3 SSE 32 43 17 23 1022.6 - 8.2
22/12:11pm 15.0 10.7 14.5 97 0.3 SSE 30 39 16 21 1022.7 - 7.8
22/12:00pm 14.8 10.9 14.3 97 0.3 SSE 28 37 15 20 1022.9 1022.4 7.2
22/11:58am 14.9 10.6 14.4 97 0.3 SSE 30 37 16 20 1022.9 - 7.2
22/11:45am 14.7 10.7 14.2 97 0.3 SSE 28 37 15 20 1023.4 - 6.4
22/11:37am 14.7 10.7 14.2 97 0.3 SSE 28 39 15 21 1023.5 - 5.8
22/11:30am 14.7 10.7 14.2 97 0.3 SSE 28 37 15 20 1023.4 - 5.4
22/11:00am 14.6 11.0 14.1 97 0.3 S 26 32 14 17 1023.9 - 4.2
22/10:30am 14.5 10.5 14.0 97 0.3 SSE 28 35 15 19 1024.3 - 3.2
22/10:22am 14.5 11.2 14.0 97 0.3 SSE 24 33 13 18 1024.4 - 3.0
22/10:09am 14.4 11.5 13.9 97 0.3 S 22 32 12 17 1024.3 - 2.6
22/10:00am 14.4 11.5 13.9 97 0.3 S 22 32 12 17 1024.2 - 2.2
22/09:30am 14.0 10.9 13.5 97 0.3 SSE 22 32 12 17 1024.2 - 1.2
22/09:28am 14.0 10.9 13.5 97 0.3 SSE 22 32 12 17 1024.3 - 1.2
22/09:17am 14.0 10.9 13.5 97 0.3 SSE 22 28 12 15 1024.3 - 0.8
22/09:04am 13.9 11.2 13.6 98 0.2 SSE 20 26 11 14 1024.4 - 0.2
22/09:00am 13.8 11.1 13.5 98 0.2 SSE 20 26 11 14 1024.4 1023.9 39.0
22/08:39am 13.7 11.5 13.2 97 0.3 S 17 24 9 13 1024.4 - 37.6
22/08:30am 13.6 11.3 13.1 97 0.3 S 17 20 9 11 1024.4 - 36.8
22/08:14am 13.5 11.6 13.0 97 0.3 S 15 22 8 12 1024.4 - 35.8
22/08:00am 13.4 11.1 12.9 97 0.3 S 17 22 9 12 1024.3 - 35.0
22/07:54am 13.4 11.1 12.9 97 0.3 S 17 20 9 11 1024.1 - 34.4
22/07:30am 13.3 10.9 12.8 97 0.3 S 17 24 9 13 1023.8 - 32.4
22/07:28am 13.3 10.6 12.8 97 0.3 S 19 24 10 13 1023.8 - 32.4
22/07:00am 13.2 10.8 12.7 97 0.3 SW 17 20 9 11 1023.8 - 30.0
22/06:30am 13.1 10.1 12.6 97 0.3 SSW 20 28 11 15 1023.0 - 26.8
22/06:29am 13.1 10.1 12.6 97 0.3 SSW 20 28 11 15 1023.0 - 26.6
22/06:27am 13.1 10.1 12.6 97 0.3 SSW 20 32 11 17 1023.1 - 26.4
22/06:00am 13.1 11.1 12.6 97 0.3 SSW 15 20 8 11 1022.8 1022.3 24.0
22/05:33am 13.3 11.3 12.8 97 0.3 SW 15 20 8 11 1022.5 - 21.4
22/05:30am 13.4 11.1 12.9 97 0.3 SSW 17 20 9 11 1022.3 - 21.2
22/05:16am 13.4 11.1 12.9 97 0.3 SSW 17 22 9 12 1022.0 - 20.2
22/05:00am 13.2 11.2 12.7 97 0.3 S 15 20 8 11 1022.0 - 19.4
22/04:30am 13.4 11.1 12.9 97 0.3 SW 17 20 9 11 1021.6 - 15.8
22/04:00am 13.6 12.5 13.1 97 0.3 SE 11 17 6 9 1021.4 - 13.4
22/03:46am 13.5 13.3 13.0 97 0.3 SSE 6 9 3 5 1021.4 - 11.6
22/03:37am 13.5 11.6 13.0 97 0.3 SE 15 20 8 11 1021.3 - 10.4
22/03:30am 13.6 11.3 13.1 97 0.3 SE 17 20 9 11 1021.3 - 9.4
22/03:06am 13.9 11.0 12.8 93 0.6 ESE 20 32 11 17 1021.2 - 6.2
22/03:00am 14.2 11.9 13.1 93 0.6 ESE 17 26 9 14 1021.2 1020.7 5.6
22/02:50am 14.2 11.4 13.1 93 0.6 E 20 30 11 16 1021.2 - 5.2
22/02:30am 14.3 10.7 12.9 91 0.8 E 24 32 13 17 1020.8 - 5.2
22/02:25am 14.3 10.7 12.9 91 0.8 E 24 32 13 17 1020.8 - 5.2
22/02:00am 14.3 10.0 13.2 93 0.6 E 28 37 15 20 1020.9 - 5.2
22/01:30am 14.5 11.3 13.2 92 0.7 E 22 35 12 19 1021.1 - 5.2
22/01:00am 14.5 11.3 13.2 92 0.7 E 22 32 12 17 1021.3 - 5.2
22/12:30am 14.4 11.1 13.9 97 0.3 ESE 24 35 13 19 1021.1 - 5.2
22/12:00am 14.7 10.9 13.7 94 0.6 E 26 35 14 19 1022.0 1021.5 5.0
 
Date/Time
EST
Temp
°C
App
Temp
°C
Dew
Point
Rel
Hum
%
Delta-T
°C
Wind Press
QNH
hPa
Press
MSL
hPa
Rain
since 9 am
mm
Dir
 
Spd
km/h
Gust
km/h
Spd
kts
Gust
kts
21/11:30pm 14.7 12.4 14.1 96 0.3 E 19 26 10 14 1022.5 - 4.8
21/11:11pm 14.8 9.9 13.8 94 0.6 E 32 41 17 22 1022.1 - 4.6
21/11:00pm 15.1 10.3 14.1 94 0.6 E 32 37 17 20 1022.2 - 4.2
21/10:30pm 15.1 14.5 14.6 97 0.3 ESE 11 13 6 7 1022.8 - 3.8
21/10:00pm 15.0 15.0 14.2 95 0.5 E 7 9 4 5 1023.0 - 3.6
21/09:30pm 14.9 13.8 14.3 96 0.3 E 13 19 7 10 1022.2 - 3.6
21/09:00pm 14.8 12.8 14.0 95 0.5 E 17 19 9 10 1022.2 1021.7 3.6
21/08:30pm 14.9 13.4 14.1 95 0.5 ESE 15 17 8 9 1022.3 - 3.6
21/08:00pm 15.1 13.9 14.1 94 0.6 ESE 13 15 7 8 1022.3 - 3.6
21/07:30pm 14.9 12.9 13.9 94 0.6 E 17 20 9 11 1021.9 - 3.6
21/07:00pm 14.8 11.8 13.7 93 0.6 ESE 22 28 12 15 1021.4 - 3.6
21/06:30pm 14.9 12.4 13.4 91 0.8 ESE 19 24 10 13 1021.5 - 3.6
21/06:00pm 15.2 11.6 13.1 87 1.2 ESE 24 32 13 17 1021.3 1020.8 3.2
21/05:30pm 15.2 11.6 13.2 88 1.1 ESE 24 37 13 20 1021.1 - 3.2
21/05:00pm 16.0 10.9 13.1 83 1.6 E 32 39 17 21 1020.2 - 3.0
21/04:30pm 16.9 13.3 11.8 72 2.8 S 22 32 12 17 1020.9 - 3.0
21/04:00pm 18.0 14.0 11.8 67 3.4 SSE 24 32 13 17 1020.6 - 3.0
21/03:30pm 18.1 14.0 12.8 71 3.0 SSE 26 37 14 20 1020.6 - 2.8
21/03:00pm 18.2 13.7 13.7 75 2.6 S 30 37 16 20 1020.8 1020.3 2.8
21/02:30pm 16.9 12.5 14.0 83 1.7 S 30 39 16 21 1021.4 - 2.8
21/02:00pm 15.2 11.6 14.1 93 0.6 SSW 26 35 14 19 1022.0 - 2.8
21/01:30pm 14.9 10.0 13.6 92 0.7 SSW 32 41 17 22 1022.2 - 2.4
21/01:00pm 15.4 10.0 13.8 90 0.9 SSW 35 46 19 25 1022.2 - 2.2
21/12:30pm 16.2 12.4 15.7 97 0.3 SSW 30 43 16 23 1022.5 - 2.2
21/12:15pm 15.3 11.2 14.8 97 0.3 SSW 30 37 16 20 1022.5 - 2.0
21/12:00pm 15.4 11.7 14.9 97 0.3 SW 28 37 15 20 1022.7 1022.2 1.8
21/11:53am 15.4 10.9 14.8 96 0.3 SW 32 44 17 24 1022.7 - 1.0
21/11:30am 16.5 11.4 13.0 80 2.0 SW 32 54 17 29 1022.2 - 0.0
21/11:28am 17.4 12.9 12.7 74 2.6 WSW 28 46 15 25 1022.2 - 0.0
21/11:00am 22.2 19.6 11.9 52 5.8 NE 17 26 9 14 1022.1 - 0.0
21/10:30am 22.5 20.2 13.0 55 5.5 NE 17 24 9 13 1022.3 - 0.0
21/10:00am 22.0 18.2 12.5 54 5.4 ENE 24 32 13 17 1022.6 - 0.0
21/09:30am 21.8 18.3 13.4 59 4.9 E 24 35 13 19 1022.5 - 0.0
21/09:00am 20.9 17.6 14.1 65 4.0 ENE 24 32 13 17 1022.6 1022.1 0.0
21/08:30am 20.3 16.5 14.7 70 3.3 ENE 28 35 15 19 1022.1 - 0.0
21/08:00am 19.8 16.9 15.2 75 2.7 ENE 24 33 13 18 1021.6 - 0.0
21/07:30am 18.8 16.7 15.1 79 2.2 E 20 30 11 16 1021.1 - 0.0
21/07:00am 17.8 16.2 14.9 83 1.7 E 17 20 9 11 1020.6 - 0.0
21/06:30am 16.4 15.5 13.7 84 1.5 E 11 15 6 8 1020.0 - 0.0
21/06:00am 16.3 15.1 12.8 80 2.0 E 11 13 6 7 1020.0 1019.4 0.0
21/05:30am 16.7 14.4 13.0 79 2.1 E 17 19 9 10 1019.6 - 0.0
21/05:00am 16.6 14.2 12.8 78 2.1 E 17 20 9 11 1018.9 - 0.0
21/04:30am 16.5 14.3 13.2 81 1.9 E 17 19 9 10 1018.8 - 0.0
21/04:00am 16.9 14.3 13.2 79 2.1 E 19 24 10 13 1018.5 - 0.0
21/03:30am 17.5 16.2 13.6 78 2.2 SSE 13 15 7 8 1019.3 - 0.0
21/03:00am 17.2 15.8 13.3 78 2.2 ESE 13 17 7 9 1018.8 1018.3 0.0
21/02:30am 17.5 16.0 13.2 76 2.4 SE 13 17 7 9 1019.4 - 0.0
21/02:00am 17.6 15.7 12.9 74 2.7 SE 15 19 8 10 1019.4 - 0.0
21/01:30am 18.2 17.4 13.9 76 2.5 ESE 11 13 6 7 1019.7 - 0.0
21/01:00am 18.7 17.6 14.2 75 2.6 NE 13 19 7 10 1019.8 - 0.0
21/12:30am 18.8 17.9 13.6 72 3.0 NE 11 17 6 9 1019.9 - 0.0
21/12:00am 18.9 17.3 12.9 68 3.4 NE 13 19 7 10 1019.6 1019.0 0.0
 
Date/Time
EST
Temp
°C
App
Temp
°C
Dew
Point
Rel
Hum
%
Delta-T
°C
Wind Press
QNH
hPa
Press
MSL
hPa
Rain
since 9 am
mm
Dir
 
Spd
km/h
Gust
km/h
Spd
kts
Gust
kts
20/11:30pm 19.7 17.7 12.7 64 4.0 ENE 15 20 8 11 1019.7 - 0.0
20/11:00pm 20.4 17.4 12.4 60 4.5 ENE 20 30 11 16 1019.6 - 0.0
20/10:30pm 21.0 17.3 11.6 55 5.3 NE 22 30 12 16 1019.3 - 0.0
20/10:00pm 21.7 17.7 11.7 53 5.6 NE 24 33 13 18 1019.0 - 0.0
20/09:30pm 22.3 18.3 9.1 43 7.1 ENE 20 28 11 15 1018.9 - 0.0
20/09:00pm 22.1 18.6 7.1 38 7.8 SSE 15 17 8 9 1018.0 1017.5 0.0
20/08:30pm 22.7 18.8 6.9 36 8.2 SE 17 20 9 11 1017.8 - 0.0
20/08:00pm 22.6 19.2 6.0 34 8.5 SSE 13 15 7 8 1017.4 - 0.0
20/07:30pm 22.6 20.1 6.4 35 8.3 SSE 9 11 5 6 1016.8 - 0.0
20/07:00pm 23.0 20.1 6.7 35 8.5 SE 11 13 6 7 1016.4 - 0.0
20/06:30pm 24.3 21.0 6.6 32 9.2 SE 13 15 7 8 1016.0 - 0.0
20/06:00pm 25.7 22.5 6.8 30 10.0 SE 13 17 7 9 1015.8 1015.2 0.0
20/05:30pm 27.2 24.6 6.0 26 11.1 SE 9 13 5 7 1015.4 - 0.0
20/05:00pm 27.9 25.3 6.1 25 11.5 SE 9 15 5 8 1015.0 - 0.0
20/04:30pm 28.1 25.3 6.8 26 11.4 E 11 17 6 9 1014.6 - 0.0
20/04:00pm 28.4 26.0 7.1 26 11.5 NE 9 15 5 8 1014.2 - 0.0
20/03:30pm 28.9 26.7 8.0 27 11.5 N 9 13 5 7 1014.2 - 0.0
20/03:00pm 28.0 25.1 8.3 29 10.8 SE 13 22 7 12 1014.3 1013.7 0.0
20/02:30pm 27.1 24.7 8.5 31 10.2 SSE 11 17 6 9 1014.6 - 0.0
20/02:00pm 28.0 26.2 9.3 31 10.4 ENE 9 17 5 9 1015.0 - 0.0
20/01:30pm 27.1 24.7 8.5 31 10.2 E 11 15 6 8 1015.5 - 0.0
20/01:00pm 26.6 24.3 10.3 36 9.2 SE 13 26 7 14 1016.1 - 0.0
20/12:30pm 26.5 24.6 10.6 37 9.0 ESE 11 20 6 11 1016.7 - 0.0
20/12:00pm 25.6 24.6 11.0 40 8.3 NE 7 15 4 8 1017.2 1016.7 0.0
20/11:30am 25.0 22.9 11.2 42 7.8 N 13 20 7 11 1017.8 - 0.0
20/11:00am 25.0 23.7 12.6 46 7.2 ENE 11 24 6 13 1018.3 - 0.0
20/10:30am 23.1 22.0 11.8 49 6.4 NE 9 15 5 8 1018.8 - 0.0
20/10:00am 22.9 21.1 12.2 51 6.1 ENE 13 17 7 9 1019.3 - 0.0
20/09:30am 22.6 21.0 12.8 54 5.7 E 13 19 7 10 1019.5 - 0.0
20/09:00am 21.1 19.4 13.5 62 4.4 ENE 15 28 8 15 1019.7 1019.1 0.0
20/08:30am 21.2 19.3 15.3 69 3.5 E 19 26 10 14 1019.9 - 0.0
20/08:18am 20.5 18.1 15.3 72 3.1 E 22 28 12 15 1019.9 - 0.0
20/08:00am 19.4 17.5 15.1 76 2.5 E 19 24 10 13 1019.8 - 0.0
20/07:30am 18.3 16.7 15.0 81 1.9 ESE 17 20 9 11 1019.4 - 0.0
20/07:26am 18.3 17.2 15.2 82 1.8 ESE 15 20 8 11 1019.4 - 0.0
20/07:00am 16.5 14.9 13.8 84 1.5 ESE 15 19 8 10 1018.8 - 0.0
20/06:30am 14.8 13.4 13.3 91 0.8 SE 13 17 7 9 1018.5 - 0.0
20/06:00am 14.2 12.6 12.8 91 0.8 SSE 13 15 7 8 1018.1 1017.6 0.0
20/05:30am 14.8 12.6 13.2 90 0.9 ESE 17 19 9 10 1017.7 - 0.0
20/05:00am 14.9 13.0 12.9 88 1.1 SE 15 17 8 9 1017.2 - 0.0
20/04:30am 14.5 12.9 12.7 89 1.0 ESE 13 15 7 8 1017.0 - 0.0
20/04:00am 13.5 12.1 10.9 84 1.4 E 9 11 5 6 1016.7 - 0.0
20/03:30am 14.3 11.6 10.5 78 2.0 ESE 15 19 8 10 1016.5 - 0.0
20/03:00am 14.9 12.6 10.5 75 2.3 SE 13 15 7 8 1016.8 1016.3 0.0
20/02:30am 15.0 13.1 10.4 74 2.4 SE 11 13 6 7 1017.1 - 0.0
20/02:00am 13.9 11.0 8.3 69 2.8 E 13 17 7 9 1017.3 - 0.0
20/01:30am 15.2 13.3 7.7 61 3.8 ENE 7 11 4 6 1017.5 - 0.0
20/01:00am 15.8 15.1 6.8 55 4.5 CALM 0 6 0 3 1017.7 - 0.0
20/12:30am 18.3 16.5 7.1 48 5.7 SSW 6 15 3 8 1018.0 - 0.0

Other Formats:

Comma delimited format used in spreadsheet applications
http://www.bom.gov.au/fwo/IDQ60801/IDQ60801.94363.axf

JavaScript Object Notation format (JSON) in row-major order
http://www.bom.gov.au/fwo/IDQ60801/IDQ60801.94363.json